SZN207 GOBD-GVAC
Flight info
| Callsign | SZN207 |
|---|---|
| Flight time | 1h 3m |
| Altitude | 36000 |
| Route | LIGOV1B LIGOV DCT LUMPO R976 POLMO BIRAP1F |
| Aircraft | B738/M-SDE2E3FGHIRWXY/LB1 |
Departure
| Time | 2026-04-25 09:47 |
|---|---|
| Airport | Blaise Diagne International Airport (GOBD) |
Arrival
| Time | 2026-04-25 10:50 |
|---|---|
| Airport | Amílcar Cabral International Airport (GVAC) |
| Time | Latitude | Longitude | Altitude | Speed | Heading |
|---|---|---|---|---|---|
| 2026-04-25 09:18 | 14.67131 | -17.06855 | 270 ft | 0 kts | 122° |
| 2026-04-25 09:36 | 14.67135 | -17.06862 | 271 ft | 4 kts | 122° |
| 2026-04-25 09:36 | 14.67150 | -17.06886 | 270 ft | 4 kts | 122° |
| 2026-04-25 09:37 | 14.67164 | -17.06909 | 270 ft | 4 kts | 122° |
| 2026-04-25 09:37 | 14.67178 | -17.06933 | 270 ft | 4 kts | 122° |
| 2026-04-25 09:37 | 14.67190 | -17.06951 | 270 ft | 4 kts | 126° |
| 2026-04-25 09:37 | 14.67208 | -17.06971 | 270 ft | 4 kts | 149° |
| 2026-04-25 09:38 | 14.67229 | -17.06979 | 270 ft | 1 kts | 179° |
| 2026-04-25 09:41 | 14.67219 | -17.06978 | 270 ft | 4 kts | 179° |
| 2026-04-25 09:41 | 14.67172 | -17.06978 | 270 ft | 9 kts | 179° |
| 2026-04-25 09:41 | 14.67088 | -17.06977 | 270 ft | 14 kts | 179° |
| 2026-04-25 09:41 | 14.66983 | -17.06976 | 271 ft | 15 kts | 179° |
| 2026-04-25 09:42 | 14.66879 | -17.06974 | 271 ft | 15 kts | 179° |
| 2026-04-25 09:42 | 14.66780 | -17.06973 | 271 ft | 14 kts | 179° |
| 2026-04-25 09:42 | 14.66694 | -17.06974 | 271 ft | 9 kts | 192° |
| 2026-04-25 09:42 | 14.66663 | -17.07028 | 270 ft | 10 kts | 268° |
| 2026-04-25 09:43 | 14.66626 | -17.07085 | 266 ft | 11 kts | 193° |
| 2026-04-25 09:43 | 14.66548 | -17.07086 | 265 ft | 11 kts | 180° |
| 2026-04-25 09:43 | 14.66461 | -17.07086 | 265 ft | 14 kts | 180° |
| 2026-04-25 09:43 | 14.66357 | -17.07084 | 265 ft | 16 kts | 179° |
| 2026-04-25 09:44 | 14.66242 | -17.07083 | 265 ft | 17 kts | 179° |
| 2026-04-25 09:44 | 14.66114 | -17.07082 | 265 ft | 19 kts | 179° |
| 2026-04-25 09:44 | 14.65973 | -17.07080 | 264 ft | 21 kts | 179° |
| 2026-04-25 09:44 | 14.65825 | -17.07079 | 265 ft | 21 kts | 179° |
| 2026-04-25 09:45 | 14.65684 | -17.07078 | 265 ft | 16 kts | 179° |
| 2026-04-25 09:45 | 14.65626 | -17.07098 | 264 ft | 8 kts | 235° |
| 2026-04-25 09:45 | 14.65619 | -17.07157 | 264 ft | 8 kts | 268° |
| 2026-04-25 09:45 | 14.65617 | -17.07217 | 263 ft | 9 kts | 266° |
| 2026-04-25 09:46 | 14.65645 | -17.07264 | 263 ft | 9 kts | 336° |
| 2026-04-25 09:46 | 14.65731 | -17.07270 | 263 ft | 25 kts | 359° |
| 2026-04-25 09:46 | 14.66152 | -17.07273 | 261 ft | 96 kts | 359° |
| 2026-04-25 09:46 | 14.67026 | -17.07283 | 267 ft | 153 kts | 359° |
| 2026-04-25 09:47 | 14.68200 | -17.07289 | 625 ft | 172 kts | 360° |
| 2026-04-25 09:47 | 14.69386 | -17.07290 | 1397 ft | 172 kts | 0° |
| 2026-04-25 09:47 | 14.70643 | -17.07298 | 1830 ft | 193 kts | 359° |
| 2026-04-25 09:47 | 14.72076 | -17.07312 | 2094 ft | 216 kts | 359° |
| 2026-04-25 09:48 | 14.73644 | -17.07331 | 2313 ft | 236 kts | 359° |
| 2026-04-25 09:48 | 14.75364 | -17.07347 | 2491 ft | 260 kts | 359° |
| 2026-04-25 09:48 | 14.77211 | -17.07357 | 3109 ft | 266 kts | 359° |
| 2026-04-25 09:48 | 14.79080 | -17.07370 | 3820 ft | 271 kts | 359° |
| 2026-04-25 09:49 | 14.80974 | -17.07388 | 4566 ft | 273 kts | 359° |
| 2026-04-25 09:49 | 14.82881 | -17.07414 | 5281 ft | 276 kts | 359° |
| 2026-04-25 09:49 | 14.84811 | -17.07442 | 5972 ft | 279 kts | 359° |
| 2026-04-25 09:49 | 14.86769 | -17.07465 | 6672 ft | 283 kts | 359° |
| 2026-04-25 09:50 | 14.88720 | -17.07539 | 7353 ft | 286 kts | 350° |
| 2026-04-25 09:50 | 14.90540 | -17.08345 | 8022 ft | 288 kts | 320° |
| 2026-04-25 09:50 | 14.91784 | -17.09953 | 8729 ft | 289 kts | 295° |
| 2026-04-25 09:50 | 14.92431 | -17.11932 | 9412 ft | 293 kts | 284° |
| 2026-04-25 09:51 | 14.92941 | -17.13985 | 10085 ft | 297 kts | 283° |
| 2026-04-25 09:51 | 14.93435 | -17.16105 | 10412 ft | 314 kts | 283° |
| 2026-04-25 09:51 | 14.93961 | -17.18381 | 10572 ft | 334 kts | 283° |
| 2026-04-25 09:51 | 14.94521 | -17.20783 | 10742 ft | 352 kts | 283° |
| 2026-04-25 09:52 | 14.95108 | -17.23275 | 11153 ft | 360 kts | 283° |
| 2026-04-25 09:52 | 14.95709 | -17.25796 | 11701 ft | 363 kts | 283° |
| 2026-04-25 09:52 | 14.96319 | -17.28337 | 12251 ft | 366 kts | 283° |
| 2026-04-25 09:52 | 14.96938 | -17.30905 | 12786 ft | 369 kts | 283° |
| 2026-04-25 09:53 | 14.97563 | -17.33490 | 13348 ft | 371 kts | 283° |
| 2026-04-25 09:53 | 14.98193 | -17.36094 | 13824 ft | 375 kts | 283° |
| 2026-04-25 09:53 | 14.98831 | -17.38725 | 14304 ft | 379 kts | 283° |
| 2026-04-25 09:53 | 14.99475 | -17.41383 | 14755 ft | 383 kts | 283° |
| 2026-04-25 09:54 | 15.00125 | -17.44069 | 15245 ft | 386 kts | 283° |
| 2026-04-25 09:54 | 15.00778 | -17.46768 | 15717 ft | 388 kts | 283° |
| 2026-04-25 09:54 | 15.01437 | -17.49492 | 16153 ft | 391 kts | 283° |
| 2026-04-25 09:54 | 15.02084 | -17.52166 | 16553 ft | 394 kts | 283° |
| 2026-04-25 09:55 | 15.02753 | -17.54937 | 16932 ft | 398 kts | 283° |
| 2026-04-25 09:55 | 15.03426 | -17.57722 | 17322 ft | 400 kts | 283° |
| 2026-04-25 09:55 | 15.04094 | -17.60491 | 17607 ft | 405 kts | 284° |
| 2026-04-25 09:55 | 15.04777 | -17.63323 | 18253 ft | 403 kts | 283° |
| 2026-04-25 09:56 | 15.05447 | -17.66106 | 19308 ft | 393 kts | 284° |
| 2026-04-25 09:56 | 15.06106 | -17.68841 | 20120 ft | 392 kts | 284° |
| 2026-04-25 09:56 | 15.06769 | -17.71593 | 20672 ft | 396 kts | 284° |
| 2026-04-25 09:56 | 15.07439 | -17.74375 | 21182 ft | 401 kts | 284° |
| 2026-04-25 09:57 | 15.08116 | -17.77188 | 21730 ft | 404 kts | 284° |
| 2026-04-25 09:57 | 15.08798 | -17.80023 | 22267 ft | 407 kts | 284° |
| 2026-04-25 09:57 | 15.09484 | -17.82881 | 22783 ft | 411 kts | 284° |
| 2026-04-25 09:57 | 15.10176 | -17.85762 | 23259 ft | 414 kts | 284° |
| 2026-04-25 09:58 | 15.10875 | -17.88673 | 23757 ft | 417 kts | 284° |
| 2026-04-25 09:58 | 15.11576 | -17.91599 | 24220 ft | 420 kts | 284° |
| 2026-04-25 09:58 | 15.12273 | -17.94506 | 24671 ft | 423 kts | 284° |
| 2026-04-25 09:58 | 15.12984 | -17.97473 | 25109 ft | 426 kts | 284° |
| 2026-04-25 09:59 | 15.13681 | -18.00386 | 25526 ft | 429 kts | 284° |
| 2026-04-25 09:59 | 15.14401 | -18.03396 | 25938 ft | 431 kts | 284° |
| 2026-04-25 09:59 | 15.15123 | -18.06414 | 26337 ft | 434 kts | 284° |
| 2026-04-25 09:59 | 15.15851 | -18.09460 | 26722 ft | 437 kts | 284° |
| 2026-04-25 10:00 | 15.16582 | -18.12523 | 27094 ft | 439 kts | 284° |
| 2026-04-25 10:00 | 15.17318 | -18.15606 | 27462 ft | 442 kts | 284° |
| 2026-04-25 10:00 | 15.18056 | -18.18703 | 27821 ft | 444 kts | 284° |
| 2026-04-25 10:00 | 15.18798 | -18.21815 | 28166 ft | 447 kts | 284° |
| 2026-04-25 10:01 | 15.19545 | -18.24950 | 28498 ft | 449 kts | 284° |
| 2026-04-25 10:01 | 15.20294 | -18.28098 | 28822 ft | 451 kts | 284° |
| 2026-04-25 10:01 | 15.21048 | -18.31268 | 29136 ft | 454 kts | 284° |
| 2026-04-25 10:01 | 15.21804 | -18.34449 | 29445 ft | 456 kts | 284° |
| 2026-04-25 10:02 | 15.22561 | -18.37636 | 29817 ft | 455 kts | 284° |
| 2026-04-25 10:02 | 15.23306 | -18.40773 | 30280 ft | 453 kts | 284° |
| 2026-04-25 10:02 | 15.24056 | -18.43934 | 30724 ft | 451 kts | 284° |
| 2026-04-25 10:02 | 15.24803 | -18.47087 | 31106 ft | 451 kts | 284° |
| 2026-04-25 10:03 | 15.25551 | -18.50244 | 31455 ft | 451 kts | 283° |
| 2026-04-25 10:03 | 15.26298 | -18.53397 | 31821 ft | 450 kts | 283° |
| 2026-04-25 10:03 | 15.27042 | -18.56542 | 32215 ft | 449 kts | 283° |
| 2026-04-25 10:03 | 15.27784 | -18.59682 | 32571 ft | 448 kts | 283° |
| 2026-04-25 10:04 | 15.28524 | -18.62812 | 32909 ft | 448 kts | 283° |
| 2026-04-25 10:04 | 15.29265 | -18.65948 | 33240 ft | 447 kts | 283° |
| 2026-04-25 10:04 | 15.30002 | -18.69074 | 33585 ft | 446 kts | 283° |
| 2026-04-25 10:04 | 15.30738 | -18.72192 | 33915 ft | 446 kts | 283° |
| 2026-04-25 10:05 | 15.31472 | -18.75308 | 34228 ft | 445 kts | 283° |
| 2026-04-25 10:05 | 15.32205 | -18.78422 | 34536 ft | 445 kts | 283° |
| 2026-04-25 10:05 | 15.32938 | -18.81534 | 34844 ft | 444 kts | 283° |
| 2026-04-25 10:05 | 15.33669 | -18.84643 | 35150 ft | 443 kts | 283° |
| 2026-04-25 10:06 | 15.34396 | -18.87738 | 35433 ft | 443 kts | 283° |
| 2026-04-25 10:06 | 15.35125 | -18.90841 | 35675 ft | 443 kts | 283° |
| 2026-04-25 10:06 | 15.35852 | -18.93939 | 35924 ft | 442 kts | 283° |
| 2026-04-25 10:06 | 15.36581 | -18.97042 | 35996 ft | 445 kts | 283° |
| 2026-04-25 10:07 | 15.38025 | -19.03204 | 35997 ft | 445 kts | 283° |
| 2026-04-25 10:07 | 15.39471 | -19.09383 | 35992 ft | 439 kts | 283° |
| 2026-04-25 10:08 | 15.40897 | -19.15486 | 36006 ft | 438 kts | 283° |
| 2026-04-25 10:08 | 15.42328 | -19.21616 | 36000 ft | 437 kts | 283° |
| 2026-04-25 10:09 | 15.43756 | -19.27744 | 36002 ft | 438 kts | 283° |
| 2026-04-25 10:09 | 15.45186 | -19.33885 | 36002 ft | 438 kts | 283° |
| 2026-04-25 10:10 | 15.46614 | -19.40024 | 36006 ft | 438 kts | 284° |
| 2026-04-25 10:10 | 15.48508 | -19.46031 | 36008 ft | 439 kts | 291° |
| 2026-04-25 10:11 | 15.50744 | -19.51929 | 36004 ft | 440 kts | 291° |
| 2026-04-25 10:11 | 15.52951 | -19.57860 | 36003 ft | 441 kts | 290° |
| 2026-04-25 10:12 | 15.55102 | -19.63819 | 36001 ft | 442 kts | 290° |
| 2026-04-25 10:13 | 15.58304 | -19.72787 | 35999 ft | 442 kts | 290° |
| 2026-04-25 10:13 | 15.60441 | -19.78777 | 36000 ft | 442 kts | 290° |
| 2026-04-25 10:14 | 15.62562 | -19.84723 | 36000 ft | 442 kts | 290° |
| 2026-04-25 10:14 | 15.64708 | -19.90747 | 36000 ft | 442 kts | 290° |
| 2026-04-25 10:15 | 15.66478 | -19.95718 | 36000 ft | 442 kts | 290° |
| 2026-04-25 10:15 | 15.68929 | -20.02578 | 36002 ft | 441 kts | 290° |
| 2026-04-25 10:16 | 15.70758 | -20.07564 | 36003 ft | 441 kts | 291° |
| 2026-04-25 10:16 | 15.72949 | -20.13513 | 36004 ft | 441 kts | 291° |
| 2026-04-25 10:17 | 15.75130 | -20.19453 | 35999 ft | 440 kts | 290° |
| 2026-04-25 10:17 | 15.77306 | -20.25399 | 36002 ft | 440 kts | 290° |
| 2026-04-25 10:18 | 15.79479 | -20.31346 | 36000 ft | 440 kts | 290° |
| 2026-04-25 10:18 | 15.81634 | -20.37253 | 36001 ft | 440 kts | 290° |
| 2026-04-25 10:19 | 15.83800 | -20.43192 | 35999 ft | 439 kts | 290° |
| 2026-04-25 10:19 | 15.85963 | -20.49129 | 36000 ft | 439 kts | 290° |
| 2026-04-25 10:20 | 15.88127 | -20.55076 | 36002 ft | 439 kts | 290° |
| 2026-04-25 10:20 | 15.90287 | -20.61018 | 36000 ft | 440 kts | 290° |
| 2026-04-25 10:21 | 15.92447 | -20.66963 | 36000 ft | 440 kts | 290° |
| 2026-04-25 10:21 | 15.94607 | -20.72917 | 36005 ft | 440 kts | 290° |
| 2026-04-25 10:22 | 15.96763 | -20.78864 | 36002 ft | 440 kts | 290° |
| 2026-04-25 10:22 | 15.98920 | -20.84819 | 35999 ft | 440 kts | 290° |
| 2026-04-25 10:23 | 16.01059 | -20.90731 | 35983 ft | 441 kts | 290° |
| 2026-04-25 10:23 | 16.02149 | -20.93747 | 35475 ft | 446 kts | 290° |
| 2026-04-25 10:23 | 16.03232 | -20.96745 | 35084 ft | 440 kts | 290° |
| 2026-04-25 10:23 | 16.04308 | -20.99722 | 34633 ft | 437 kts | 290° |
| 2026-04-25 10:24 | 16.05346 | -21.02597 | 34211 ft | 433 kts | 290° |
| 2026-04-25 10:24 | 16.06399 | -21.05517 | 33859 ft | 427 kts | 290° |
| 2026-04-25 10:24 | 16.07422 | -21.08353 | 33493 ft | 423 kts | 290° |
| 2026-04-25 10:24 | 16.08449 | -21.11200 | 33083 ft | 419 kts | 290° |
| 2026-04-25 10:25 | 16.09469 | -21.14031 | 32671 ft | 416 kts | 290° |
| 2026-04-25 10:25 | 16.10468 | -21.16805 | 32246 ft | 413 kts | 290° |
| 2026-04-25 10:25 | 16.11474 | -21.19599 | 31773 ft | 412 kts | 290° |
| 2026-04-25 10:25 | 16.12476 | -21.22384 | 31344 ft | 409 kts | 290° |
| 2026-04-25 10:26 | 16.13471 | -21.25152 | 30917 ft | 409 kts | 290° |
| 2026-04-25 10:26 | 16.14470 | -21.27932 | 30500 ft | 411 kts | 290° |
| 2026-04-25 10:26 | 16.15473 | -21.30722 | 30041 ft | 414 kts | 290° |
| 2026-04-25 10:26 | 16.16483 | -21.33534 | 29623 ft | 410 kts | 290° |
| 2026-04-25 10:27 | 16.17463 | -21.36263 | 29179 ft | 407 kts | 290° |
| 2026-04-25 10:27 | 16.18450 | -21.39015 | 28735 ft | 404 kts | 290° |
| 2026-04-25 10:27 | 16.19432 | -21.41752 | 28281 ft | 401 kts | 290° |
| 2026-04-25 10:27 | 16.20403 | -21.44461 | 27815 ft | 398 kts | 290° |
| 2026-04-25 10:28 | 16.21368 | -21.47155 | 27358 ft | 396 kts | 290° |
| 2026-04-25 10:28 | 16.22327 | -21.49832 | 26911 ft | 393 kts | 290° |
| 2026-04-25 10:28 | 16.23277 | -21.52486 | 26444 ft | 391 kts | 290° |
| 2026-04-25 10:28 | 16.24222 | -21.55128 | 25999 ft | 388 kts | 290° |
| 2026-04-25 10:29 | 16.25161 | -21.57753 | 25561 ft | 386 kts | 290° |
| 2026-04-25 10:29 | 16.26094 | -21.60362 | 25106 ft | 383 kts | 290° |
| 2026-04-25 10:29 | 16.27004 | -21.62961 | 24668 ft | 380 kts | 287° |
| 2026-04-25 10:29 | 16.27588 | -21.65614 | 24120 ft | 380 kts | 277° |
| 2026-04-25 10:30 | 16.27762 | -21.68370 | 23574 ft | 381 kts | 272° |
| 2026-04-25 10:30 | 16.27852 | -21.71116 | 23108 ft | 379 kts | 271° |
| 2026-04-25 10:30 | 16.27932 | -21.73842 | 22693 ft | 375 kts | 271° |
| 2026-04-25 10:30 | 16.28014 | -21.76548 | 22279 ft | 372 kts | 272° |
| 2026-04-25 10:31 | 16.28103 | -21.79226 | 21870 ft | 369 kts | 272° |
| 2026-04-25 10:31 | 16.28197 | -21.81884 | 21464 ft | 365 kts | 272° |
| 2026-04-25 10:31 | 16.28294 | -21.84508 | 21059 ft | 362 kts | 272° |
| 2026-04-25 10:31 | 16.28392 | -21.87121 | 20666 ft | 359 kts | 272° |
| 2026-04-25 10:32 | 16.28491 | -21.89715 | 20262 ft | 357 kts | 272° |
| 2026-04-25 10:32 | 16.28589 | -21.92280 | 19865 ft | 354 kts | 272° |
| 2026-04-25 10:32 | 16.28687 | -21.94831 | 19470 ft | 351 kts | 272° |
| 2026-04-25 10:32 | 16.28783 | -21.97359 | 19076 ft | 349 kts | 272° |
| 2026-04-25 10:33 | 16.28879 | -21.99876 | 18683 ft | 346 kts | 272° |
| 2026-04-25 10:33 | 16.28971 | -22.02304 | 18302 ft | 344 kts | 272° |
| 2026-04-25 10:33 | 16.29064 | -22.04779 | 17912 ft | 341 kts | 272° |
| 2026-04-25 10:33 | 16.29157 | -22.07247 | 17526 ft | 339 kts | 272° |
| 2026-04-25 10:34 | 16.29249 | -22.09692 | 17133 ft | 337 kts | 272° |
| 2026-04-25 10:34 | 16.29340 | -22.12121 | 16745 ft | 335 kts | 272° |
| 2026-04-25 10:34 | 16.29430 | -22.14544 | 16358 ft | 333 kts | 272° |
| 2026-04-25 10:34 | 16.29519 | -22.16942 | 15973 ft | 331 kts | 272° |
| 2026-04-25 10:35 | 16.29608 | -22.19330 | 15588 ft | 329 kts | 272° |
| 2026-04-25 10:35 | 16.29696 | -22.21708 | 15205 ft | 327 kts | 272° |
| 2026-04-25 10:35 | 16.29783 | -22.24067 | 14823 ft | 325 kts | 272° |
| 2026-04-25 10:35 | 16.29869 | -22.26413 | 14445 ft | 324 kts | 272° |
| 2026-04-25 10:36 | 16.29955 | -22.28747 | 14067 ft | 322 kts | 272° |
| 2026-04-25 10:36 | 16.30038 | -22.31039 | 13696 ft | 320 kts | 272° |
| 2026-04-25 10:36 | 16.30122 | -22.33344 | 13326 ft | 318 kts | 272° |
| 2026-04-25 10:36 | 16.30213 | -22.35642 | 12956 ft | 316 kts | 274° |
| 2026-04-25 10:37 | 16.30569 | -22.37874 | 12731 ft | 309 kts | 283° |
| 2026-04-25 10:37 | 16.31108 | -22.40023 | 12439 ft | 305 kts | 285° |
| 2026-04-25 10:37 | 16.31679 | -22.42149 | 12065 ft | 305 kts | 285° |
| 2026-04-25 10:37 | 16.32244 | -22.44270 | 11699 ft | 304 kts | 285° |
| 2026-04-25 10:38 | 16.32794 | -22.46384 | 11355 ft | 302 kts | 285° |
| 2026-04-25 10:38 | 16.33332 | -22.48491 | 11015 ft | 300 kts | 284° |
| 2026-04-25 10:38 | 16.33859 | -22.50587 | 10713 ft | 297 kts | 284° |
| 2026-04-25 10:38 | 16.34374 | -22.52653 | 10492 ft | 291 kts | 284° |
| 2026-04-25 10:39 | 16.34877 | -22.54679 | 10247 ft | 287 kts | 284° |
| 2026-04-25 10:39 | 16.35373 | -22.56687 | 9918 ft | 286 kts | 284° |
| 2026-04-25 10:39 | 16.35867 | -22.58689 | 9582 ft | 285 kts | 284° |
| 2026-04-25 10:39 | 16.36359 | -22.60683 | 9270 ft | 284 kts | 284° |
| 2026-04-25 10:40 | 16.36847 | -22.62667 | 8960 ft | 282 kts | 284° |
| 2026-04-25 10:40 | 16.37334 | -22.64643 | 8638 ft | 281 kts | 284° |
| 2026-04-25 10:40 | 16.37818 | -22.66611 | 8325 ft | 280 kts | 284° |
| 2026-04-25 10:40 | 16.38137 | -22.67910 | 8117 ft | 279 kts | 284° |
| 2026-04-25 10:41 | 16.38776 | -22.70519 | 7708 ft | 277 kts | 284° |
| 2026-04-25 10:41 | 16.39247 | -22.72462 | 7388 ft | 276 kts | 284° |
| 2026-04-25 10:41 | 16.39715 | -22.74394 | 7076 ft | 275 kts | 284° |
| 2026-04-25 10:41 | 16.40182 | -22.76318 | 6766 ft | 273 kts | 284° |
| 2026-04-25 10:42 | 16.40649 | -22.78232 | 6449 ft | 272 kts | 284° |
| 2026-04-25 10:42 | 16.41114 | -22.80138 | 6148 ft | 271 kts | 284° |
| 2026-04-25 10:42 | 16.41572 | -22.82014 | 5844 ft | 270 kts | 284° |
| 2026-04-25 10:42 | 16.42033 | -22.83900 | 5537 ft | 268 kts | 284° |
| 2026-04-25 10:43 | 16.42492 | -22.85781 | 5233 ft | 267 kts | 284° |
| 2026-04-25 10:43 | 16.42954 | -22.87679 | 4925 ft | 266 kts | 284° |
| 2026-04-25 10:43 | 16.43401 | -22.89517 | 4627 ft | 265 kts | 284° |
| 2026-04-25 10:43 | 16.43851 | -22.91367 | 4397 ft | 261 kts | 284° |
| 2026-04-25 10:44 | 16.44492 | -22.93099 | 4223 ft | 254 kts | 307° |
| 2026-04-25 10:44 | 16.45875 | -22.94164 | 4028 ft | 249 kts | 341° |
| 2026-04-25 10:44 | 16.47558 | -22.94503 | 3892 ft | 241 kts | 351° |
| 2026-04-25 10:44 | 16.49171 | -22.94682 | 3801 ft | 226 kts | 355° |
| 2026-04-25 10:45 | 16.50696 | -22.94736 | 3706 ft | 212 kts | 358° |
| 2026-04-25 10:45 | 16.52116 | -22.94750 | 3603 ft | 197 kts | 358° |
| 2026-04-25 10:45 | 16.53449 | -22.94759 | 3491 ft | 185 kts | 358° |
| 2026-04-25 10:45 | 16.54706 | -22.94767 | 3286 ft | 180 kts | 358° |
| 2026-04-25 10:46 | 16.55945 | -22.94775 | 3111 ft | 173 kts | 358° |
| 2026-04-25 10:46 | 16.57136 | -22.94783 | 2946 ft | 171 kts | 358° |
| 2026-04-25 10:46 | 16.58329 | -22.94791 | 2854 ft | 170 kts | 358° |
| 2026-04-25 10:46 | 16.59536 | -22.94800 | 2676 ft | 176 kts | 358° |
| 2026-04-25 10:47 | 16.60758 | -22.94808 | 2456 ft | 176 kts | 358° |
| 2026-04-25 10:47 | 16.61957 | -22.94816 | 2223 ft | 173 kts | 358° |
| 2026-04-25 10:47 | 16.63154 | -22.94824 | 1993 ft | 170 kts | 358° |
| 2026-04-25 10:47 | 16.64330 | -22.94832 | 1771 ft | 168 kts | 358° |
| 2026-04-25 10:48 | 16.65503 | -22.94841 | 1558 ft | 170 kts | 358° |
| 2026-04-25 10:48 | 16.66682 | -22.94848 | 1326 ft | 167 kts | 358° |
| 2026-04-25 10:48 | 16.67803 | -22.94856 | 1140 ft | 153 kts | 358° |
| 2026-04-25 10:48 | 16.68863 | -22.94865 | 902 ft | 150 kts | 358° |
| 2026-04-25 10:49 | 16.69881 | -22.94881 | 736 ft | 147 kts | 357° |
| 2026-04-25 10:49 | 16.70576 | -22.94884 | 605 ft | 149 kts | 358° |
| 2026-04-25 10:49 | 16.71949 | -22.94885 | 329 ft | 150 kts | 358° |
| 2026-04-25 10:49 | 16.72981 | -22.94891 | 195 ft | 140 kts | 358° |
| 2026-04-25 10:50 | 16.73784 | -22.94896 | 187 ft | 85 kts | 359° |
| 2026-04-25 10:50 | 16.74147 | -22.94900 | 180 ft | 24 kts | 2° |
| 2026-04-25 10:50 | 16.74251 | -22.94825 | 187 ft | 15 kts | 58° |
| 2026-04-25 10:50 | 16.74299 | -22.94745 | 184 ft | 9 kts | 61° |
| 2026-04-25 10:51 | 16.74268 | -22.94701 | 183 ft | 9 kts | 168° |
| 2026-04-25 10:51 | 16.74209 | -22.94699 | 184 ft | 9 kts | 179° |
| 2026-04-25 10:51 | 16.74150 | -22.94698 | 185 ft | 8 kts | 179° |
| 2026-04-25 10:51 | 16.74088 | -22.94699 | 185 ft | 10 kts | 182° |
| 2026-04-25 10:52 | 16.74004 | -22.94698 | 186 ft | 13 kts | 179° |
| 2026-04-25 10:52 | 16.73914 | -22.94696 | 208 ft | 13 kts | 179° |
| 2026-04-25 10:52 | 16.73816 | -22.94696 | 199 ft | 16 kts | 179° |
| 2026-04-25 10:52 | 16.73721 | -22.94696 | 199 ft | 8 kts | 179° |
| 2026-04-25 10:53 | 16.73654 | -22.94696 | 208 ft | 11 kts | 180° |
| 2026-04-25 10:53 | 16.73567 | -22.94695 | 199 ft | 14 kts | 180° |
| 2026-04-25 10:53 | 16.73457 | -22.94694 | 199 ft | 17 kts | 180° |
| 2026-04-25 10:53 | 16.73343 | -22.94694 | 202 ft | 16 kts | 179° |
| 2026-04-25 10:54 | 16.73233 | -22.94692 | 204 ft | 15 kts | 181° |
| 2026-04-25 10:54 | 16.73166 | -22.94693 | 206 ft | 14 kts | 176° |
| 2026-04-25 10:54 | 16.73076 | -22.94671 | 207 ft | 9 kts | 128° |
| 2026-04-25 10:54 | 16.73080 | -22.94613 | 199 ft | 8 kts | 53° |
| 2026-04-25 10:55 | 16.73132 | -22.94593 | 203 ft | 8 kts | 1° |
| 2026-04-25 10:55 | 16.73188 | -22.94594 | 199 ft | 8 kts | 359° |
| 2026-04-25 10:55 | 16.73241 | -22.94595 | 208 ft | 8 kts | 0° |
| 2026-04-25 10:55 | 16.73288 | -22.94590 | 199 ft | 5 kts | 28° |
| 2026-04-25 10:56 | 16.73299 | -22.94553 | 206 ft | 6 kts | 86° |
| 2026-04-25 10:56 | 16.73300 | -22.94514 | 205 ft | 3 kts | 89° |
| 2026-04-25 10:56 | 16.73300 | -22.94503 | 202 ft | 1 kts | 90° |